Strona główna
METAR-TAF:

METAR-TAF

Lotnisko :

Port lotniczy Abidżan

Abidżan, Wybrzeże Kości Słoniowej

Szerokość geograficzna: 05-15N, Długość geograficzna: 003-56W, wysokość: 7 m

Aktualna obserwacja pogody

Raport powstał 44 minut temu, godzina 01:30 UTC
Wiatr 4 kt od zachodnio-południowy zachód
Temperatura 24°C
Wilgotność 94%
Ciśnienie 1015 hPa
Widzialność: 9000 m
Mało chmury na wysokości 1100 ft

METAR: DIAP 230130Z 25004KT 9000 FEW011 24/23 Q1015 NOSIG

czas: 02:14 (02:14 UTC)

Prognoza

Raport powstał 3 godziny i 14 minut temu, godzina 23:00 UTC
Prognoza ważna od 23 godzina 00 UTC do 24 godzina 06 UTC
Wiatr 5 kt od zachodnio-południowy zachód
Widzialność 10 km lub więcej
Rozproszone chmury na wysokości 1200 ft
Przerywane chmury na wysokości 4000 ft
Przejściowo
od 23 godzina 03 UTC do 23 godzina 07 UTC
Przerywane chmury na wysokości 1200 ft
Przejściowo
od 23 godzina 12 UTC do 23 godzina 16 UTC
Przerywane chmury na wysokości 1200 ft

TAF: DIAP 222300Z 2300/2406 24005KT 9999 SCT012 BKN040 TEMPO 2303/2307 BKN012 TEMPO 2312/2316 BKN012

Obserwacja i prognoza pogody dla ponad 4000 lotnisk (raport METAR i TAF).

Dostępne stacje oznaczono żółtymi i czerwonymi punktami na mapie.

Najedź kursorem aby zobaczyć nazwę stacji.

Kliknij aby zobaczyć obserwacje i prognozy pogody.

Aby zmienić mapę: kliknij na zielony przycisk z czarnym krzyżykiem, aby powiększyć; na zielony przycisk z myślnikiem, aby pomniejszyć; na zielone strzałki, aby przejść do map sąsiednich.


METAR-TAF: